LBWN

Varna Airport

Varna, Bulgaria
TAF LBWN 170500Z 1706/1806 28010KT 9999 SCT015 OVC030 PROB30 TEMPO 1706/1708 SNRA BKN010 OVC020 BECMG 1708/1710 34012KT SCT025 BKN040 TEMPO 1712/1716 RASN BKN010 OVC020 TEMPO 1720/1806 5000 RA BKN020 OVC030
Issued Valid From Valid To
Nov-17 @ 05:00 UTC
(4 hours ago)
Nov-17 @ 06:00 UTC
(3 hours ago)
Nov-18 @ 06:00 UTC
(in 21 hours)
Expired Click to View Nov-17 @ 06:00 to Nov-17 @ 08:00
TAF LBWN 170500Z 1706/1806 28010KT 9999 SCT015 OVC030
Wind Visibility Clouds
280° at 10 knots 10,000+ meters
  • Scattered at 1,500' AGL
  • Overcast at 3,000' AGL
Expired Click to View Nov-17 @ 06:00 to Nov-17 @ 08:00
PROB30 TEMPO 1706/1708 SNRA BKN010 OVC020
Clouds Conditions
  • Broken at 1,000' AGL
  • Overcast at 2,000' AGL
  • Snow
  • Rain
Becoming Nov-17 @ 08:00 to Nov-18 @ 06:00
BECMG 1708/1710 34012KT SCT025 BKN040
Wind Visibility Clouds
340° at 12 knots 10,000+ meters
  • Scattered at 2,500' AGL
  • Broken at 4,000' AGL
Temporary Nov-17 @ 12:00 to Nov-17 @ 16:00
TEMPO 1712/1716 RASN BKN010 OVC020
Clouds Conditions
  • Broken at 1,000' AGL
  • Overcast at 2,000' AGL
  • Rain
  • Snow
Temporary Nov-17 @ 20:00 to Nov-18 @ 06:00
TEMPO 1720/1806 5000 RA BKN020 OVC030
Visibility Clouds Conditions
5,005 meters
  • Broken at 2,000' AGL
  • Overcast at 3,000' AGL
  • Rain
TAF LBWN 170500Z 1706/1806 28010KT 9999 SCT015 OVC030 PROB30 TEMPO 1706/1708 SNRA BKN010 OVC020 BECMG 1708/1710 34012KT SCT025 BKN040 TEMPO 1712/1716 RASN BKN010 OVC020 TEMPO 1720/1806 5000 RA BKN020 OVC030
Issued Nov-17 @ 05:00 UTC
(4 hours ago)
Valid From Nov-17 @ 06:00 UTC
(3 hours ago)
Valid To Nov-18 @ 06:00 UTC
(in 21 hours)
Nov-17 @ 06:00 - Nov-17 @ 08:00
Wind Visibility
280° at 10 knots 10,000+ meters
Clouds
  • Scattered at 1,500' AGL
  • Overcast at 3,000' AGL
Nov-17 @ 06:00 - Nov-17 @ 08:00
Clouds
  • Broken at 1,000' AGL
  • Overcast at 2,000' AGL
Conditions
  • Snow
  • Rain
Becoming Nov-17 @ 08:00 - Nov-18 @ 06:00
Wind Visibility
340° at 12 knots 10,000+ meters
Clouds
  • Scattered at 2,500' AGL
  • Broken at 4,000' AGL
Temporary Nov-17 @ 12:00 - Nov-17 @ 16:00
Clouds
  • Broken at 1,000' AGL
  • Overcast at 2,000' AGL
Conditions
  • Rain
  • Snow
Temporary Nov-17 @ 20:00 - Nov-18 @ 06:00
Clouds
  • Broken at 2,000' AGL
  • Overcast at 3,000' AGL
Conditions
  • Rain